createdAt,value
2022-09-03T00:02:53.560Z,100.00
2022-09-03T00:08:06.672Z,100.00
2022-09-03T00:13:10.563Z,100.00
2022-09-03T00:18:23.452Z,100.00
2022-09-03T00:23:28.564Z,100.00
2022-09-03T00:28:46.378Z,100.00
2022-09-03T00:33:51.842Z,100.00
2022-09-03T00:38:53.520Z,100.00
2022-09-03T00:44:21.550Z,100.00
2022-09-03T00:49:42.237Z,100.00
2022-09-03T00:55:32.659Z,100.00
2022-09-03T01:00:34.351Z,100.00
2022-09-03T01:05:45.889Z,100.00
2022-09-03T01:10:50.527Z,100.00
2022-09-03T01:16:31.007Z,100.00
2022-09-03T01:21:58.800Z,100.00
2022-09-03T01:27:26.484Z,100.00
2022-09-03T01:32:56.295Z,100.00
2022-09-03T01:38:31.058Z,100.00
2022-09-03T01:43:44.693Z,100.00
2022-09-03T01:49:11.331Z,100.00
2022-09-03T01:54:34.956Z,100.00
2022-09-03T01:59:59.405Z,100.00
2022-09-03T02:05:08.057Z,100.00
2022-09-03T02:10:14.657Z,100.00
2022-09-03T02:15:20.372Z,100.00
2022-09-03T02:20:26.645Z,100.00
2022-09-03T02:25:38.073Z,100.00
2022-09-03T02:30:42.035Z,100.00
2022-09-03T02:35:44.028Z,100.00
2022-09-03T02:40:45.944Z,100.00
2022-09-03T02:45:51.397Z,100.00
2022-09-03T02:50:53.095Z,100.00
2022-09-03T02:56:01.629Z,100.00
2022-09-03T03:01:04.031Z,100.00
2022-09-03T03:06:07.153Z,100.00
2022-09-03T03:11:08.724Z,100.00
2022-09-03T03:16:10.678Z,100.00
2022-09-03T03:21:15.796Z,100.00
2022-09-03T03:26:19.603Z,100.00
2022-09-03T03:31:27.633Z,100.00
2022-09-03T03:36:32.557Z,100.00
2022-09-03T03:41:35.805Z,100.00
2022-09-03T03:46:39.649Z,100.00
2022-09-03T03:51:41.298Z,100.00
2022-09-03T03:56:42.860Z,100.00
2022-09-03T04:01:44.452Z,100.00
2022-09-03T04:06:46.037Z,100.00
2022-09-03T04:11:47.577Z,100.00
2022-09-03T04:16:49.165Z,100.00
2022-09-03T04:21:50.727Z,100.00
2022-09-03T04:26:54.100Z,100.00
2022-09-03T04:32:16.240Z,100.00
2022-09-03T04:37:20.037Z,100.00
2022-09-03T04:42:22.092Z,100.00
2022-09-03T04:47:23.936Z,100.00
2022-09-03T04:52:25.601Z,100.00
2022-09-03T04:57:27.653Z,100.00
2022-09-03T05:02:29.340Z,100.00
2022-09-03T05:07:38.516Z,100.00
2022-09-03T05:12:42.387Z,100.00
2022-09-03T05:17:43.867Z,100.00
2022-09-03T05:22:45.387Z,100.00
2022-09-03T05:27:47.030Z,100.00
2022-09-03T05:32:49.126Z,100.00
2022-09-03T05:37:53.429Z,100.00
2022-09-03T05:42:59.991Z,100.00
2022-09-03T05:48:02.504Z,100.00
2022-09-03T05:53:04.026Z,100.00
2022-09-03T05:58:05.544Z,100.00
2022-09-03T06:03:07.187Z,100.00
2022-09-03T06:08:08.842Z,100.00
2022-09-03T06:13:14.843Z,100.00
2022-09-03T06:18:16.439Z,100.00
2022-09-03T06:23:18.219Z,100.00
2022-09-03T06:28:23.152Z,100.00
2022-09-03T06:33:26.365Z,100.00
2022-09-03T06:38:32.127Z,100.00
2022-09-03T06:43:36.194Z,100.00
2022-09-03T06:48:38.965Z,100.00
2022-09-03T06:53:43.440Z,100.00
2022-09-03T06:58:47.113Z,100.00
2022-09-03T07:03:57.276Z,100.00
2022-09-03T07:08:59.835Z,100.00
2022-09-03T07:14:02.624Z,95.17
2022-09-03T07:19:06.377Z,91.90
2022-09-03T07:24:13.047Z,88.30
2022-09-03T07:29:16.042Z,84.15
2022-09-03T07:34:26.531Z,81.00
2022-09-03T07:39:28.250Z,76.63
2022-09-03T07:44:31.031Z,78.38
2022-09-03T07:49:34.692Z,73.89
2022-09-03T07:54:36.261Z,71.98
2022-09-03T08:00:06.898Z,71.64
2022-09-03T08:05:28.407Z,67.20
2022-09-03T08:10:32.480Z,64.64
2022-09-03T08:15:34.855Z,59.80
2022-09-03T08:20:38.784Z,57.56
2022-09-03T08:25:41.409Z,55.34
2022-09-03T08:30:43.101Z,55.74
2022-09-03T08:35:54.389Z,54.05
2022-09-03T08:41:30.240Z,53.49
2022-09-03T08:46:51.699Z,48.35
2022-09-03T08:51:56.616Z,53.77
2022-09-03T08:57:01.877Z,48.66
2022-09-03T09:02:20.738Z,46.86
2022-09-03T09:07:32.375Z,45.99
2022-09-03T09:12:58.778Z,44.84
2022-09-03T09:18:14.615Z,47.08
2022-09-03T09:23:40.021Z,47.66
2022-09-03T09:28:43.454Z,42.77
2022-09-03T09:33:52.508Z,45.26
2022-09-03T09:39:08.695Z,42.32
2022-09-03T09:44:19.884Z,43.36
2022-09-03T09:50:00.535Z,43.94
2022-09-03T09:55:08.610Z,44.49
2022-09-03T10:00:38.574Z,44.29
2022-09-03T10:05:40.675Z,40.94
2022-09-03T10:10:49.031Z,43.98
2022-09-03T10:15:58.895Z,40.64
2022-09-03T10:21:31.158Z,39.87
2022-09-03T10:33:35.102Z,41.10
2022-09-03T10:39:07.133Z,38.20
2022-09-03T10:44:40.108Z,39.99
2022-09-03T10:49:52.411Z,38.92
2022-09-03T10:55:38.942Z,43.37
2022-09-03T11:00:53.898Z,39.79
2022-09-03T11:06:11.340Z,38.32
2022-09-03T11:18:08.371Z,41.14
2022-09-03T11:23:15.138Z,38.39
2022-09-03T11:28:45.532Z,38.26
2022-09-03T11:33:54.840Z,39.43
2022-09-03T11:39:01.071Z,38.46
2022-09-03T11:44:40.897Z,41.17
2022-09-03T11:50:04.352Z,38.76
2022-09-03T11:55:07.688Z,38.53
2022-09-03T12:00:14.606Z,38.01
2022-09-03T12:05:27.350Z,38.19
2022-09-03T12:17:38.748Z,40.23
2022-09-03T12:22:40.925Z,39.90
2022-09-03T12:27:45.283Z,39.03
2022-09-03T12:32:48.180Z,39.12
2022-09-03T12:38:09.902Z,38.63
2022-09-03T12:48:39.721Z,40.85
2022-09-03T12:53:42.624Z,42.46
2022-09-03T12:58:53.346Z,41.72
2022-09-03T13:04:04.077Z,40.07
2022-09-03T13:09:11.016Z,39.65
2022-09-03T13:14:19.805Z,42.36
2022-09-03T13:19:45.652Z,39.60
2022-09-03T13:25:02.369Z,41.68
2022-09-03T13:30:40.067Z,40.53
2022-09-03T13:35:50.806Z,40.62
2022-09-03T13:41:02.044Z,43.98
2022-09-03T13:46:22.364Z,41.44
2022-09-03T13:51:43.876Z,39.24
2022-09-03T13:57:10.704Z,40.81
2022-09-03T14:02:44.829Z,43.51
2022-09-03T14:08:07.818Z,39.78
2022-09-03T14:13:37.466Z,42.98
2022-09-03T14:26:12.224Z,41.06
2022-09-03T14:31:44.867Z,41.88
2022-09-03T14:43:25.539Z,43.16
2022-09-03T14:48:55.119Z,39.87
2022-09-03T14:54:23.245Z,40.26
2022-09-03T14:59:38.852Z,44.31
2022-09-03T15:05:15.338Z,45.83
2022-09-03T15:10:42.452Z,47.54
2022-09-03T15:16:15.029Z,41.81
2022-09-03T15:21:33.587Z,42.47
2022-09-03T15:26:47.362Z,40.42
2022-09-03T15:32:05.589Z,39.47
2022-09-03T15:37:32.472Z,41.20
2022-09-03T15:42:37.097Z,41.67
2022-09-03T15:48:14.655Z,40.22
2022-09-03T15:53:36.297Z,42.38
2022-09-03T15:59:03.950Z,42.29
2022-09-03T16:04:25.795Z,42.23
2022-09-03T16:10:26.325Z,42.55
2022-09-03T16:15:41.639Z,44.39
2022-09-03T16:20:48.362Z,44.26
2022-09-03T16:26:03.947Z,43.25
2022-09-03T16:31:43.670Z,41.54
2022-09-03T16:37:36.447Z,45.37
2022-09-03T16:43:39.258Z,46.71
2022-09-03T16:48:57.441Z,47.99
2022-09-03T16:54:12.893Z,46.32
2022-09-03T16:59:56.309Z,47.74
2022-09-03T17:05:03.967Z,48.17
2022-09-03T17:10:36.132Z,48.66
2022-09-03T17:16:09.101Z,49.64
2022-09-03T17:28:07.695Z,52.07
2022-09-03T17:33:42.783Z,66.98
2022-09-03T17:39:22.699Z,81.22
2022-09-03T17:44:54.620Z,80.46
2022-09-03T17:50:16.338Z,93.80
2022-09-03T17:55:42.064Z,89.62
2022-09-03T18:01:46.780Z,79.57
2022-09-03T18:06:59.320Z,91.82
2022-09-03T18:12:25.726Z,100.00
2022-09-03T18:17:33.565Z,96.50
2022-09-03T18:23:08.812Z,85.60
2022-09-03T18:28:35.829Z,92.54
2022-09-03T18:33:58.759Z,97.35
2022-09-03T18:39:33.631Z,100.00
2022-09-03T18:45:22.153Z,100.00
2022-09-03T18:58:01.972Z,88.53
2022-09-03T19:04:01.771Z,92.68
2022-09-03T19:10:08.498Z,86.96
2022-09-03T19:15:56.015Z,91.91
2022-09-03T19:21:34.489Z,100.00
2022-09-03T19:27:23.528Z,100.00
2022-09-03T19:33:17.210Z,100.00
2022-09-03T19:38:59.791Z,100.00
2022-09-03T19:44:45.909Z,100.00
2022-09-03T19:50:31.973Z,100.00
2022-09-03T20:02:46.163Z,100.00
2022-09-03T20:08:10.802Z,100.00
2022-09-03T20:13:17.779Z,100.00
2022-09-03T20:18:27.718Z,100.00
2022-09-03T20:23:33.670Z,100.00
2022-09-03T20:28:54.324Z,100.00
2022-09-03T20:34:37.848Z,100.00
2022-09-03T20:39:48.403Z,100.00
2022-09-03T20:45:53.591Z,100.00
2022-09-03T20:51:10.168Z,100.00
2022-09-03T20:56:29.351Z,100.00
2022-09-03T21:01:45.508Z,100.00
2022-09-03T21:07:40.082Z,100.00
2022-09-03T21:13:04.552Z,100.00
2022-09-03T21:18:15.043Z,100.00
2022-09-03T21:23:22.712Z,100.00
2022-09-03T21:35:35.884Z,100.00
2022-09-03T21:47:37.694Z,100.00
2022-09-03T21:52:51.887Z,100.00
2022-09-03T21:58:27.553Z,100.00
2022-09-03T22:10:56.898Z,100.00
2022-09-03T22:16:13.218Z,100.00
2022-09-03T22:21:40.304Z,100.00
2022-09-03T22:26:52.267Z,100.00
2022-09-03T22:32:05.595Z,100.00
2022-09-03T22:37:22.855Z,100.00
2022-09-03T22:49:49.045Z,100.00
2022-09-03T22:54:50.538Z,100.00
2022-09-03T22:59:59.810Z,100.00
2022-09-03T23:05:17.979Z,100.00
2022-09-03T23:10:29.125Z,100.00
2022-09-03T23:15:32.539Z,100.00
2022-09-03T23:20:38.092Z,100.00
2022-09-03T23:25:45.375Z,100.00
2022-09-03T23:30:47.069Z,100.00
2022-09-03T23:35:58.260Z,100.00
2022-09-03T23:41:06.930Z,100.00
2022-09-03T23:46:24.207Z,100.00
2022-09-03T23:51:44.958Z,100.00
2022-09-03T23:56:55.548Z,100.00
